Rawlins Municipal Harvey Field
KRWL : now visible

Airfield :











YOU CAN JOIN US ON...

 
LOGIN :

Register | Disclaimer

   EN    FR    IT 

 









Legend :    VFR   Marginal VFR   IFR   Intensive IFR   Very Intensive IFR
Visi :
Ceiling :
>= 8 km
>= 3000ft
5 to 8 km
1000 to 3000 ft
1500m to 5 km
500 to 1000 ft
800 to 1500m
200 to 500 ft
< 800m
< 200 ft
Symbols :   Thunderstorms  Fog  Heavy snow  Heavy precipitations  Wind > 20 kt







- Airport Elevation : 6813 ft


KRWL - Rawlins Municipal Harvey Field

CURRENT METAR :
  • 181053Z AUTO 00000KT 10SM 00/M06 A3016 RMK AO2 SLP170 T00001056 $

EXPIRED METARs :
  • 180953Z AUTO 19005KT 10SM CLR 01/M06 A3017 RMK AO2 SLP170 T00111056 $
  • 180853Z AUTO 23006KT 10SM CLR 04/M05 A3016 RMK AO2 SLP162 T00391050 58002 $

TAF KRWL
Valid from the 18 at 12:00 until the 19 at 12:00 UTC


181120Z 1812/1912 VRB03KT P6SM SKC
FM181700 23018G26KT P6SM FEW100
FM190300 22009KT P6SM SKC
No reported NOTAMs for that airfield.



MET'MAP, your aeronautical weather chart ! - Copyright ORBIFLY December 2007 - Disclaimer

ORBIFLY MET'MAP TEAM :

Programming & Development : Alexandra Zaïnal
Concept & Development : Baudouin d'Aumeries
Co-Development & Prog : Marc-Olivier Méhu
Technical & hardware support : Manuel Goepfert

Contact : metmap@orbifly.com




SOURCES & CREDITS :

   NOAA       Earth
Advisory